createdAt,value
2022-08-07T00:01:44.664Z,42.68
2022-08-07T00:04:09.246Z,42.39
2022-08-07T00:06:51.067Z,42.70
2022-08-07T00:09:22.357Z,42.27
2022-08-07T00:11:55.390Z,42.15
2022-08-07T00:14:30.932Z,41.52
2022-08-07T00:17:04.056Z,42.04
2022-08-07T00:20:01.174Z,42.67
2022-08-07T00:22:24.637Z,42.00
2022-08-07T00:25:16.571Z,42.17
2022-08-07T00:27:52.698Z,41.99
2022-08-07T00:30:27.340Z,41.99
2022-08-07T00:33:02.240Z,41.70
2022-08-07T00:35:30.679Z,42.17
2022-08-07T00:37:59.817Z,41.97
2022-08-07T00:40:39.228Z,41.62
2022-08-07T00:44:01.374Z,41.68
2022-08-07T00:46:02.331Z,41.64
2022-08-07T00:48:31.963Z,41.53
2022-08-07T00:51:02.745Z,42.33
2022-08-07T00:53:39.084Z,42.32
2022-08-07T00:56:18.545Z,41.81
2022-08-07T00:58:47.397Z,42.01
2022-08-07T01:01:19.609Z,41.94
2022-08-07T01:03:56.904Z,41.74
2022-08-07T01:06:30.440Z,41.79
2022-08-07T01:09:01.629Z,41.90
2022-08-07T01:12:09.880Z,41.86
2022-08-07T01:14:28.073Z,42.58
2022-08-07T01:16:58.376Z,41.62
2022-08-07T01:19:32.573Z,42.01
2022-08-07T01:22:03.144Z,41.57
2022-08-07T01:24:31.994Z,41.95
2022-08-07T01:27:01.249Z,41.87
2022-08-07T01:29:31.232Z,41.89
2022-08-07T01:31:59.503Z,41.95
2022-08-07T01:34:31.981Z,41.94
2022-08-07T01:37:00.577Z,41.82
2022-08-07T01:39:40.535Z,42.63
2022-08-07T01:42:39.377Z,42.19
2022-08-07T01:45:09.869Z,42.59
2022-08-07T01:48:19.169Z,42.65
2022-08-07T01:50:32.187Z,42.88
2022-08-07T01:53:08.539Z,43.24
2022-08-07T01:55:51.756Z,42.88
2022-08-07T01:58:29.025Z,42.97
2022-08-07T02:01:58.732Z,43.62
2022-08-07T02:04:24.192Z,43.66
2022-08-07T02:06:58.868Z,43.49
2022-08-07T02:09:33.792Z,43.69
2022-08-07T02:12:19.044Z,43.54
2022-08-07T02:14:56.098Z,43.54
2022-08-07T02:17:31.499Z,43.87
2022-08-07T02:20:06.815Z,43.76
2022-08-07T02:22:43.743Z,44.03
2022-08-07T02:25:17.702Z,44.30
2022-08-07T02:27:51.966Z,44.74
2022-08-07T02:30:20.848Z,44.24
2022-08-07T02:33:00.439Z,43.91
2022-08-07T02:36:29.499Z,44.48
2022-08-07T02:38:35.529Z,44.54
2022-08-07T02:41:04.607Z,44.48
2022-08-07T02:43:33.741Z,44.54
2022-08-07T02:46:04.475Z,44.08
2022-08-07T02:48:32.300Z,44.32
2022-08-07T02:51:29.247Z,44.33
2022-08-07T02:54:02.949Z,44.54
2022-08-07T02:56:33.313Z,44.73
2022-08-07T02:59:08.020Z,44.69
2022-08-07T03:01:41.464Z,44.36
2022-08-07T03:04:16.213Z,44.88
2022-08-07T03:06:48.119Z,44.87
2022-08-07T03:09:43.466Z,44.98
2022-08-07T03:12:19.181Z,44.83
2022-08-07T03:14:52.523Z,45.08
2022-08-07T03:17:22.021Z,45.03
2022-08-07T03:19:55.087Z,45.48
2022-08-07T03:22:29.693Z,45.12
2022-08-07T03:25:00.467Z,45.38
2022-08-07T03:27:30.547Z,44.80
2022-08-07T03:30:10.926Z,44.91
2022-08-07T03:32:49.091Z,45.40
2022-08-07T03:35:44.087Z,45.29
2022-08-07T03:38:21.205Z,45.03
2022-08-07T03:40:57.408Z,44.99
2022-08-07T03:43:32.295Z,44.93
2022-08-07T03:46:03.895Z,45.12
2022-08-07T03:48:45.409Z,44.99
2022-08-07T03:51:30.917Z,45.41
2022-08-07T03:54:36.187Z,45.49
2022-08-07T03:57:07.408Z,45.32
2022-08-07T03:59:35.276Z,45.06
2022-08-07T04:02:03.230Z,45.29
2022-08-07T04:04:32.804Z,45.24
2022-08-07T04:07:00.361Z,45.67
2022-08-07T04:09:45.412Z,45.87
2022-08-07T04:12:24.711Z,45.63
2022-08-07T04:14:57.225Z,45.82
2022-08-07T04:17:24.990Z,46.60
2022-08-07T04:20:13.787Z,46.52
2022-08-07T04:22:53.369Z,45.99
2022-08-07T04:25:23.945Z,46.14
2022-08-07T04:28:00.667Z,46.02
2022-08-07T04:30:39.527Z,46.18
2022-08-07T04:33:15.405Z,46.72
2022-08-07T04:35:50.476Z,46.89
2022-08-07T04:38:19.294Z,46.57
2022-08-07T04:40:52.646Z,46.80
2022-08-07T04:44:12.633Z,47.15
2022-08-07T04:47:23.541Z,46.98
2022-08-07T04:50:35.573Z,46.27
2022-08-07T04:54:01.878Z,46.75
2022-08-07T04:58:16.698Z,46.56
2022-08-07T05:00:10.858Z,46.35
2022-08-07T05:04:06.943Z,46.43
2022-08-07T05:07:26.279Z,46.98
2022-08-07T05:10:14.284Z,46.49
2022-08-07T05:12:57.257Z,46.78
2022-08-07T05:15:42.329Z,46.89
2022-08-07T05:18:34.208Z,47.15
2022-08-07T05:21:06.917Z,46.97
2022-08-07T05:23:58.213Z,46.96
2022-08-07T05:26:29.836Z,46.93
2022-08-07T05:29:03.033Z,46.80
2022-08-07T05:31:47.618Z,47.09
2022-08-07T05:34:21.202Z,46.89
2022-08-07T05:36:55.849Z,46.65
2022-08-07T05:40:13.499Z,46.88
2022-08-07T05:42:14.635Z,46.72
2022-08-07T05:45:14.681Z,47.08
2022-08-07T05:48:02.191Z,46.86
2022-08-07T05:50:34.206Z,46.51
2022-08-07T05:53:04.756Z,47.28
2022-08-07T05:56:03.566Z,47.16
2022-08-07T05:58:36.929Z,47.12
2022-08-07T06:01:12.002Z,47.63
2022-08-07T06:03:56.438Z,47.02
2022-08-07T06:06:29.573Z,47.58
2022-08-07T06:08:58.264Z,47.20
2022-08-07T06:11:26.749Z,47.79
2022-08-07T06:14:12.584Z,47.31
2022-08-07T06:16:50.725Z,47.69
2022-08-07T06:19:47.529Z,47.86
2022-08-07T06:22:20.533Z,48.02
2022-08-07T06:24:58.220Z,47.45
2022-08-07T06:27:44.257Z,47.36
2022-08-07T06:30:32.488Z,47.44
2022-08-07T06:33:09.975Z,47.24
2022-08-07T06:35:47.743Z,47.85
2022-08-07T06:38:32.642Z,47.41
2022-08-07T06:41:09.764Z,47.49
2022-08-07T06:43:46.234Z,47.28
2022-08-07T06:46:15.667Z,47.48
2022-08-07T06:48:59.164Z,47.44
2022-08-07T06:51:33.589Z,47.13
2022-08-07T06:55:29.758Z,46.38
2022-08-07T06:56:54.592Z,46.74
2022-08-07T07:00:13.717Z,46.44
2022-08-07T07:02:49.168Z,46.57
2022-08-07T07:05:12.691Z,46.41
2022-08-07T07:07:59.567Z,46.21
2022-08-07T07:10:35.426Z,46.30
2022-08-07T07:13:56.245Z,46.02
2022-08-07T07:16:23.781Z,46.03
2022-08-07T07:19:34.131Z,46.60
2022-08-07T07:22:05.220Z,46.55
2022-08-07T07:24:43.042Z,46.33
2022-08-07T07:27:20.551Z,46.06
2022-08-07T07:30:09.294Z,46.60
2022-08-07T07:32:42.674Z,46.49
2022-08-07T07:35:12.812Z,46.61
2022-08-07T07:37:49.528Z,46.31
2022-08-07T07:40:26.136Z,46.46
2022-08-07T07:42:57.097Z,46.04
2022-08-07T07:46:38.577Z,46.39
2022-08-07T07:48:35.345Z,46.79
2022-08-07T07:51:07.764Z,46.53
2022-08-07T07:53:51.759Z,46.84
2022-08-07T07:56:30.047Z,46.49
2022-08-07T07:59:02.805Z,46.41
2022-08-07T08:02:03.512Z,46.89
2022-08-07T08:04:25.737Z,46.90
2022-08-07T08:06:55.221Z,46.80
2022-08-07T08:09:29.219Z,47.04
2022-08-07T08:12:02.507Z,46.96
2022-08-07T08:14:36.559Z,46.40
2022-08-07T08:17:56.706Z,46.61
2022-08-07T08:20:19.228Z,46.28
2022-08-07T08:23:14.413Z,46.54
2022-08-07T08:26:07.025Z,46.49
2022-08-07T08:28:45.151Z,46.35
2022-08-07T08:31:59.024Z,46.48
2022-08-07T08:34:26.708Z,46.32
2022-08-07T08:36:58.606Z,45.51
2022-08-07T08:39:39.571Z,45.86
2022-08-07T08:42:40.941Z,45.72
2022-08-07T08:45:58.572Z,45.76
2022-08-07T08:49:57.224Z,45.21
2022-08-07T08:52:40.793Z,45.40
2022-08-07T08:56:10.094Z,45.55
2022-08-07T08:59:27.750Z,45.93
2022-08-07T09:02:58.589Z,45.87
2022-08-07T09:06:00.203Z,46.11
2022-08-07T09:09:29.895Z,46.20
2022-08-07T09:13:14.917Z,47.41
2022-08-07T09:16:57.190Z,48.09
2022-08-07T09:20:09.333Z,47.72
2022-08-07T09:24:34.138Z,47.25
2022-08-07T09:26:50.843Z,47.24
2022-08-07T09:30:04.373Z,46.02
2022-08-07T09:33:41.143Z,46.23
2022-08-07T09:37:14.775Z,46.31
2022-08-07T09:40:09.213Z,46.95
2022-08-07T09:44:19.222Z,46.55
2022-08-07T09:48:02.910Z,47.01
2022-08-07T09:52:16.639Z,46.06
2022-08-07T09:54:18.133Z,45.85
2022-08-07T09:57:21.880Z,46.69
2022-08-07T10:00:15.016Z,46.31
2022-08-07T10:04:14.819Z,46.73
2022-08-07T10:07:52.255Z,46.82
2022-08-07T10:11:17.232Z,46.76
2022-08-07T10:14:11.283Z,46.60
2022-08-07T10:18:02.698Z,46.16
2022-08-07T10:22:15.617Z,45.68
2022-08-07T10:25:24.990Z,45.01
2022-08-07T10:28:43.476Z,44.87
2022-08-07T10:32:53.108Z,45.00
2022-08-07T10:36:05.536Z,44.75
2022-08-07T10:39:05.521Z,43.92
2022-08-07T10:42:20.871Z,44.01
2022-08-07T10:45:57.353Z,44.05
2022-08-07T10:49:13.637Z,44.54
2022-08-07T10:52:13.972Z,43.19
2022-08-07T10:55:38.473Z,42.98
2022-08-07T10:59:37.433Z,44.20
2022-08-07T11:02:41.713Z,43.58
2022-08-07T11:05:50.931Z,43.26
2022-08-07T11:08:58.036Z,42.54
2022-08-07T11:11:39.775Z,43.67
2022-08-07T11:15:00.642Z,43.56
2022-08-07T11:17:54.040Z,42.28
2022-08-07T11:21:12.393Z,43.15
2022-08-07T11:24:08.482Z,43.29
2022-08-07T11:28:01.162Z,42.27
2022-08-07T11:30:38.979Z,42.61
2022-08-07T11:33:54.010Z,41.52
2022-08-07T11:37:57.824Z,41.91
2022-08-07T11:41:17.992Z,40.50
2022-08-07T11:44:52.365Z,39.91
2022-08-07T11:48:32.746Z,40.13
2022-08-07T11:51:47.292Z,40.11
2022-08-07T11:56:13.944Z,40.43
2022-08-07T11:59:04.771Z,39.49
2022-08-07T12:02:04.078Z,40.17
2022-08-07T12:05:41.330Z,38.36
2022-08-07T12:09:00.336Z,38.30
2022-08-07T12:12:19.438Z,38.60
2022-08-07T12:15:17.346Z,38.34
2022-08-07T12:18:46.108Z,38.27
2022-08-07T12:22:39.103Z,38.02
2022-08-07T12:26:05.612Z,38.65
2022-08-07T12:29:38.031Z,39.46
2022-08-07T12:32:44.956Z,40.75
2022-08-07T12:35:19.193Z,38.11
2022-08-07T12:38:09.699Z,38.51
2022-08-07T12:40:47.455Z,38.07
2022-08-07T12:44:02.761Z,39.33
2022-08-07T12:47:33.747Z,38.41
2022-08-07T12:50:33.971Z,38.26
2022-08-07T12:54:24.295Z,38.96
2022-08-07T12:56:51.466Z,36.77
2022-08-07T12:59:53.899Z,36.88
2022-08-07T13:03:08.052Z,38.30
2022-08-07T13:06:27.195Z,37.79
2022-08-07T13:10:29.219Z,37.67
2022-08-07T13:13:46.845Z,37.22
2022-08-07T13:17:01.024Z,36.99
2022-08-07T13:19:51.744Z,39.37
2022-08-07T13:22:52.582Z,38.88
2022-08-07T13:25:39.420Z,40.23
2022-08-07T13:28:30.552Z,38.25
2022-08-07T13:31:46.024Z,38.88
2022-08-07T13:35:08.447Z,37.77
2022-08-07T13:38:31.004Z,39.10
2022-08-07T13:41:51.017Z,37.95
2022-08-07T13:44:34.637Z,37.24
2022-08-07T13:47:09.797Z,37.46
2022-08-07T13:50:34.507Z,37.40
2022-08-07T13:52:47.077Z,37.43
2022-08-07T13:55:26.427Z,36.58
2022-08-07T13:58:31.446Z,36.85
2022-08-07T14:01:10.753Z,35.86
2022-08-07T14:04:05.587Z,37.71
2022-08-07T14:06:38.718Z,37.79
2022-08-07T14:09:17.012Z,36.44
2022-08-07T14:12:10.268Z,36.06
2022-08-07T14:14:51.347Z,37.19
2022-08-07T14:18:12.671Z,37.30
2022-08-07T14:20:41.190Z,36.52
2022-08-07T14:23:59.166Z,36.06
2022-08-07T14:26:39.185Z,35.36
2022-08-07T14:30:05.538Z,34.41
2022-08-07T14:32:07.964Z,35.06
2022-08-07T14:34:45.500Z,35.23
2022-08-07T14:37:18.499Z,35.12
2022-08-07T14:40:17.665Z,34.37
2022-08-07T14:43:01.383Z,33.92
2022-08-07T14:45:55.124Z,33.05
2022-08-07T14:48:33.172Z,32.05
2022-08-07T14:54:09.896Z,31.40
2022-08-07T14:56:51.905Z,31.34
2022-08-07T15:00:05.499Z,30.35
2022-08-07T15:02:34.042Z,30.91
2022-08-07T15:05:04.716Z,30.49
2022-08-07T15:07:51.858Z,30.06
2022-08-07T15:10:30.038Z,30.79
2022-08-07T15:13:11.751Z,30.71
2022-08-07T15:18:45.224Z,31.55
2022-08-07T15:25:13.967Z,32.03
2022-08-07T15:27:31.350Z,32.56
2022-08-07T15:30:16.293Z,32.99
2022-08-07T15:32:51.098Z,32.54
2022-08-07T15:36:00.301Z,32.60
2022-08-07T15:42:46.896Z,31.88
2022-08-07T15:44:23.835Z,31.67
2022-08-07T15:47:09.004Z,32.08
2022-08-07T15:52:39.758Z,32.61
2022-08-07T15:55:18.269Z,32.58
2022-08-07T15:58:00.131Z,33.27
2022-08-07T16:00:39.010Z,34.00
2022-08-07T16:03:46.551Z,34.06
2022-08-07T16:06:17.369Z,34.27
2022-08-07T16:08:47.592Z,34.05
2022-08-07T16:12:37.938Z,34.96
2022-08-07T16:15:58.202Z,35.02
2022-08-07T16:19:42.001Z,34.71
2022-08-07T16:23:54.136Z,35.40
2022-08-07T16:26:30.671Z,35.37
2022-08-07T16:30:30.080Z,35.42
2022-08-07T16:34:02.404Z,34.86
2022-08-07T16:37:02.444Z,34.81
2022-08-07T16:40:34.239Z,35.18
2022-08-07T16:44:04.102Z,35.05
2022-08-07T16:47:56.592Z,35.23
2022-08-07T16:52:01.260Z,35.25
2022-08-07T16:55:24.437Z,35.65
2022-08-07T16:58:54.277Z,35.71
2022-08-07T17:01:57.064Z,35.79
2022-08-07T17:04:59.302Z,36.28
2022-08-07T17:07:55.046Z,35.74
2022-08-07T17:10:54.204Z,36.01
2022-08-07T17:14:19.049Z,35.27
2022-08-07T17:16:59.982Z,35.79
2022-08-07T17:20:02.212Z,35.24
2022-08-07T17:22:57.486Z,34.87
2022-08-07T17:26:22.591Z,34.94
2022-08-07T17:30:20.331Z,36.37
2022-08-07T17:34:09.695Z,37.86
2022-08-07T17:36:57.683Z,38.27
2022-08-07T17:40:07.889Z,38.65
2022-08-07T17:43:18.363Z,39.14
2022-08-07T17:46:18.293Z,39.43
2022-08-07T17:49:10.137Z,38.82
2022-08-07T17:52:32.400Z,38.86
2022-08-07T17:55:55.592Z,38.85
2022-08-07T17:58:30.653Z,38.89
2022-08-07T18:01:20.797Z,39.11
2022-08-07T18:05:02.171Z,39.62
2022-08-07T18:09:01.307Z,39.75
2022-08-07T18:12:28.032Z,39.94
2022-08-07T18:15:32.724Z,40.34
2022-08-07T18:18:45.174Z,40.05
2022-08-07T18:21:57.748Z,41.11
2022-08-07T18:24:51.208Z,40.28
2022-08-07T18:28:34.581Z,40.76
2022-08-07T18:31:33.744Z,40.70
2022-08-07T18:34:39.360Z,41.36
2022-08-07T18:38:56.298Z,40.94
2022-08-07T18:42:28.743Z,41.73
2022-08-07T18:45:44.658Z,41.19
2022-08-07T18:50:31.093Z,41.57
2022-08-07T18:52:33.395Z,41.07
2022-08-07T18:55:56.204Z,41.37
2022-08-07T18:59:47.610Z,41.67
2022-08-07T19:03:17.304Z,41.90
2022-08-07T19:06:06.891Z,41.97
2022-08-07T19:09:54.755Z,42.12
2022-08-07T19:12:30.245Z,42.36
2022-08-07T19:16:04.216Z,42.91
2022-08-07T19:19:00.069Z,42.68
2022-08-07T19:22:31.137Z,42.51
2022-08-07T19:25:06.274Z,43.29
2022-08-07T19:28:30.872Z,42.72
2022-08-07T19:31:04.153Z,43.68
2022-08-07T19:33:33.484Z,43.48
2022-08-07T19:36:08.615Z,43.04
2022-08-07T19:38:52.660Z,42.93
2022-08-07T19:41:39.764Z,43.60
2022-08-07T19:44:21.861Z,43.88
2022-08-07T19:47:05.001Z,43.42
2022-08-07T19:49:57.490Z,43.54
2022-08-07T19:52:32.379Z,44.00
2022-08-07T19:55:02.858Z,44.14
2022-08-07T19:58:06.496Z,44.34
2022-08-07T20:00:55.581Z,44.26
2022-08-07T20:03:35.734Z,43.93
2022-08-07T20:06:06.428Z,43.72
2022-08-07T20:08:48.888Z,44.04
2022-08-07T20:11:23.268Z,44.22
2022-08-07T20:14:13.532Z,44.83
2022-08-07T20:16:54.478Z,44.00
2022-08-07T20:19:28.896Z,43.87
2022-08-07T20:22:29.171Z,44.09
2022-08-07T20:25:12.937Z,44.33
2022-08-07T20:27:58.008Z,44.22
2022-08-07T20:30:38.473Z,44.74
2022-08-07T20:33:24.224Z,44.49
2022-08-07T20:36:03.716Z,44.79
2022-08-07T20:38:32.264Z,44.84
2022-08-07T20:41:05.589Z,45.01
2022-08-07T20:43:36.090Z,45.28
2022-08-07T20:46:25.699Z,45.32
2022-08-07T20:49:59.098Z,45.38
2022-08-07T20:51:50.839Z,45.48
2022-08-07T20:54:29.625Z,45.47
2022-08-07T20:57:08.311Z,45.67
2022-08-07T21:00:08.178Z,46.10
2022-08-07T21:02:53.959Z,45.88
2022-08-07T21:05:52.741Z,46.58
2022-08-07T21:08:42.445Z,46.70
2022-08-07T21:11:18.184Z,46.99
2022-08-07T21:14:16.569Z,47.23
2022-08-07T21:18:02.710Z,47.09
2022-08-07T21:20:10.462Z,47.14
2022-08-07T21:22:57.352Z,47.12
2022-08-07T21:26:21.895Z,47.30
2022-08-07T21:29:30.783Z,47.44
2022-08-07T21:32:47.704Z,47.68
2022-08-07T21:36:05.630Z,47.84
2022-08-07T21:39:46.362Z,47.75
2022-08-07T21:42:59.653Z,48.11
2022-08-07T21:46:08.713Z,48.37
2022-08-07T21:49:01.023Z,48.56
2022-08-07T21:51:28.214Z,48.55
2022-08-07T21:54:37.606Z,48.89
2022-08-07T21:58:02.201Z,49.35
2022-08-07T22:00:32.519Z,49.31
2022-08-07T22:03:49.783Z,49.46
2022-08-07T22:06:29.126Z,49.79
2022-08-07T22:09:12.254Z,49.86
2022-08-07T22:12:05.361Z,49.93
2022-08-07T22:16:43.139Z,49.93
2022-08-07T22:19:01.229Z,50.47
2022-08-07T22:22:20.990Z,50.44
2022-08-07T22:25:40.026Z,50.46
2022-08-07T22:29:00.338Z,50.77
2022-08-07T22:32:20.411Z,51.43
2022-08-07T22:34:58.452Z,51.65
2022-08-07T22:38:53.953Z,51.80
2022-08-07T22:42:03.343Z,51.71
2022-08-07T22:44:41.480Z,51.95
2022-08-07T22:48:13.590Z,52.12
2022-08-07T22:52:03.776Z,52.51
2022-08-07T22:55:17.486Z,52.71
2022-08-07T22:59:02.359Z,53.06
2022-08-07T23:02:15.625Z,53.13
2022-08-07T23:06:09.166Z,52.69
2022-08-07T23:10:00.578Z,53.64
2022-08-07T23:13:49.079Z,53.84
2022-08-07T23:17:32.917Z,53.84
2022-08-07T23:21:16.320Z,54.09
2022-08-07T23:25:04.241Z,54.33
2022-08-07T23:28:21.918Z,53.91
2022-08-07T23:34:20.951Z,54.03
2022-08-07T23:35:16.728Z,54.30
2022-08-07T23:38:36.691Z,54.49
2022-08-07T23:42:05.571Z,54.63
2022-08-07T23:45:33.100Z,54.88
2022-08-07T23:48:40.703Z,54.98
2022-08-07T23:52:59.570Z,55.71
2022-08-07T23:54:52.118Z,55.41
2022-08-07T23:58:02.559Z,55.63
